Time;durP1;ratioP1;P1;durP2;ratioP2;P2;SDS_P1;SDS_P2;PMS_P1;PMS_P2;Temp;Humidity;BMP_temperature;BMP_pressure;BME280_temperature;BME280_humidity;BME280_pressure;Samples;Min_cycle;Max_cycle;Signal;HPM_P1;HPM_P2
2023/03/15 00:01:32;;;;;;;6.27;1.87;;;3.00;99.90;;;;;;5094162;28;20246;-78
2023/03/15 00:04:04;;;;;;;2.73;1.53;;;3.10;99.90;;;;;;5094396;28;20260;-78
2023/03/15 00:06:33;;;;;;;3.20;1.50;;;3.10;99.90;;;;;;5094350;28;20207;-78
2023/03/15 00:09:02;;;;;;;3.50;1.50;;;3.20;99.90;;;;;;5093415;28;20288;-78
2023/03/15 00:11:30;;;;;;;2.33;1.37;;;3.20;99.90;;;;;;5093796;28;20211;-78
2023/03/15 00:14:00;;;;;;;3.67;1.93;;;3.30;99.90;;;;;;5094835;28;20666;-76
2023/03/15 00:16:28;;;;;;;3.23;1.67;;;3.30;99.90;;;;;;5095822;28;20293;-77
2023/03/15 00:18:58;;;;;;;4.00;1.50;;;3.40;99.90;;;;;;5098632;28;20206;-77
2023/03/15 00:21:28;;;;;;;3.17;1.43;;;3.50;99.90;;;;;;5096178;28;20290;-78
2023/03/15 00:23:57;;;;;;;3.93;1.87;;;3.50;99.90;;;;;;5094290;28;20219;-78
2023/03/15 00:26:25;;;;;;;3.53;1.50;;;3.50;99.90;;;;;;5094436;28;20213;-77
2023/03/15 00:28:53;;;;;;;2.77;1.43;;;3.50;99.90;;;;;;5093109;28;20223;-78
2023/03/15 00:31:23;;;;;;;2.77;1.53;;;3.60;99.90;;;;;;5094034;28;20297;-76
2023/03/15 00:33:53;;;;;;;2.70;1.37;;;3.60;99.90;;;;;;5094149;28;20259;-76
2023/03/15 00:36:23;;;;;;;1.63;1.23;;;3.70;99.90;;;;;;5093797;28;20648;-77
2023/03/15 00:38:55;;;;;;;3.93;1.50;;;3.70;99.90;;;;;;5094002;28;20666;-77
2023/03/15 00:41:24;;;;;;;2.37;1.40;;;3.70;99.90;;;;;;5094258;28;20694;-79
2023/03/15 00:43:53;;;;;;;1.70;1.30;;;3.70;99.90;;;;;;5092923;28;20751;-77
2023/03/15 00:46:21;;;;;;;2.90;1.60;;;3.60;99.90;;;;;;5094171;28;20252;-79
2023/03/15 00:48:49;;;;;;;3.50;1.30;;;3.50;99.90;;;;;;5093069;28;20203;-77
2023/03/15 00:51:20;;;;;;;1.97;1.00;;;3.40;99.90;;;;;;5093674;28;20223;-78
2023/03/15 00:53:50;;;;;;;3.00;1.40;;;3.20;99.90;;;;;;5092084;28;20211;-79
2023/03/15 00:56:22;;;;;;;4.07;1.80;;;3.00;99.90;;;;;;5093694;28;20290;-78
2023/03/15 00:58:52;;;;;;;2.40;1.50;;;2.80;99.90;;;;;;5093687;28;20270;-80
2023/03/15 01:01:23;;;;;;;3.20;1.73;;;2.80;99.90;;;;;;5093211;28;20203;-78
2023/03/15 01:03:52;;;;;;;4.83;1.93;;;2.80;99.90;;;;;;5092022;28;20210;-78
2023/03/15 01:06:21;;;;;;;2.60;1.50;;;2.70;99.90;;;;;;5095425;28;20223;-78
2023/03/15 01:08:51;;;;;;;3.10;1.63;;;2.70;99.90;;;;;;5095827;28;20699;-78
2023/03/15 01:11:23;;;;;;;3.27;1.57;;;2.50;99.90;;;;;;5096138;28;20215;-79
2023/03/15 01:13:52;;;;;;;3.37;1.80;;;2.30;99.90;;;;;;5102912;28;20211;-79
2023/03/15 01:16:20;;;;;;;3.93;1.73;;;2.30;99.90;;;;;;5097349;28;20214;-79
2023/03/15 01:18:50;;;;;;;3.13;1.80;;;2.20;99.90;;;;;;5097502;28;20301;-80
2023/03/15 01:21:18;;;;;;;3.63;1.93;;;2.20;99.90;;;;;;5106206;28;20301;-79
2023/03/15 01:23:46;;;;;;;2.23;1.50;;;2.10;99.90;;;;;;5099799;28;20304;-80
2023/03/15 01:26:17;;;;;;;3.23;1.73;;;1.90;99.90;;;;;;5098702;28;20211;-79
2023/03/15 01:28:47;;;;;;;2.57;1.50;;;1.70;99.90;;;;;;5092307;28;20230;-79
2023/03/15 01:31:19;;;;;;;3.27;1.70;;;1.50;99.90;;;;;;5102755;28;20245;-79
2023/03/15 01:33:47;;;;;;;1.63;1.50;;;1.40;99.90;;;;;;5106124;28;20246;-79
2023/03/15 01:36:16;;;;;;;2.30;1.80;;;1.30;99.90;;;;;;5104496;28;20210;-80
2023/03/15 01:38:45;;;;;;;1.67;1.53;;;1.20;99.90;;;;;;5100248;28;20297;-78
2023/03/15 01:41:14;;;;;;;2.23;1.60;;;1.20;99.90;;;;;;5100548;28;20202;-79
2023/03/15 01:43:46;;;;;;;1.40;1.30;;;1.20;99.90;;;;;;5097863;28;20218;-79
2023/03/15 01:46:32;;;;;;;1.70;1.60;;;1.10;99.90;;;;;;5095742;28;20214;-82
2023/03/15 01:49:07;;;;;;;1.97;1.73;;;1.00;99.90;;;;;;5095412;28;20535;-81
2023/03/15 01:51:40;;;;;;;2.10;1.70;;;1.00;99.90;;;;;;5095662;28;20187;-77
2023/03/15 01:54:13;;;;;;;1.70;1.60;;;1.00;99.90;;;;;;5091863;28;20290;-79
2023/03/15 01:56:46;;;;;;;2.03;1.50;;;1.00;99.90;;;;;;5095360;28;20484;-79
2023/03/15 01:59:19;;;;;;;2.77;1.70;;;1.00;99.90;;;;;;5094541;28;20246;-79
2023/03/15 02:01:49;;;;;;;1.87;1.60;;;1.00;99.90;;;;;;5093391;28;20214;-80
2023/03/15 02:04:23;;;;;;;2.67;1.73;;;1.00;99.90;;;;;;5097238;28;20468;-79
2023/03/15 02:06:57;;;;;;;2.17;1.70;;;1.00;99.90;;;;;;5093814;28;20206;-80
2023/03/15 02:09:32;;;;;;;2.90;1.90;;;1.10;99.90;;;;;;5096485;28;20256;-78
2023/03/15 02:12:00;;;;;;;2.47;1.90;;;1.10;99.90;;;;;;5097798;28;20897;-78
2023/03/15 02:14:30;;;;;;;2.60;2.10;;;1.10;99.90;;;;;;5095634;28;20457;-80
2023/03/15 02:17:00;;;;;;;2.20;2.00;;;1.10;99.90;;;;;;5095480;28;20183;-79
2023/03/15 02:19:41;;;;;;;3.10;2.23;;;1.10;99.90;;;;;;5095119;28;20440;-79
2023/03/15 02:22:22;;;;;;;2.57;2.30;;;1.10;99.90;;;;;;5093608;28;20471;-78
2023/03/15 02:24:58;;;;;;;2.50;2.27;;;1.10;99.90;;;;;;5093239;28;20187;-79
2023/03/15 02:27:30;;;;;;;3.53;2.57;;;1.20;99.90;;;;;;5092736;28;20218;-79
2023/03/15 02:30:02;;;;;;;2.73;2.40;;;1.20;99.90;;;;;;5093455;28;20484;-77
2023/03/15 02:32:30;;;;;;;3.10;2.63;;;1.20;99.90;;;;;;5092312;28;20290;-80
2023/03/15 02:34:59;;;;;;;4.87;2.70;;;1.20;99.90;;;;;;5092352;28;20211;-79
2023/03/15 02:37:27;;;;;;;3.30;3.00;;;1.30;99.90;;;;;;5092198;28;20786;-78
2023/03/15 02:39:55;;;;;;;4.10;3.20;;;1.20;99.90;;;;;;5091085;28;20435;-78
2023/03/15 02:42:23;;;;;;;3.73;3.03;;;1.30;99.90;;;;;;5091123;28;20536;-78
2023/03/15 02:44:54;;;;;;;3.43;3.13;;;1.30;99.90;;;;;;5091700;28;20661;-77
2023/03/15 02:47:27;;;;;;;3.90;3.20;;;1.30;99.90;;;;;;5091825;28;20813;-79
2023/03/15 02:49:55;;;;;;;3.90;3.20;;;1.30;99.90;;;;;;5092011;28;20625;-77
2023/03/15 02:52:24;;;;;;;3.50;3.20;;;1.30;99.90;;;;;;5092898;28;20891;-79
2023/03/15 02:54:52;;;;;;;4.43;3.20;;;1.40;99.90;;;;;;5092174;28;20210;-77
2023/03/15 02:57:21;;;;;;;3.73;3.13;;;1.30;99.90;;;;;;5091251;28;20492;-77
2023/03/15 02:59:50;;;;;;;3.60;3.10;;;1.30;99.90;;;;;;5094013;28;20214;-77
2023/03/15 03:02:19;;;;;;;3.20;3.00;;;1.30;99.90;;;;;;5092266;28;20235;-76
2023/03/15 03:04:48;;;;;;;3.10;2.90;;;1.30;99.90;;;;;;5095249;28;20218;-79
2023/03/15 03:07:16;;;;;;;3.47;3.17;;;1.10;99.90;;;;;;5091408;28;20675;-79
2023/03/15 03:09:44;;;;;;;3.90;3.27;;;1.10;99.90;;;;;;5094609;28;20453;-78
2023/03/15 03:12:14;;;;;;;3.37;3.07;;;1.00;99.90;;;;;;5098415;28;20508;-80
2023/03/15 03:14:42;;;;;;;3.10;2.80;;;1.00;99.90;;;;;;5085760;28;20471;-80
2023/03/15 03:17:10;;;;;;;4.80;3.60;;;0.90;99.90;;;;;;5077657;28;20211;-80
2023/03/15 03:19:40;;;;;;;3.73;3.27;;;0.90;99.90;;;;;;5077416;28;20212;-79
2023/03/15 03:22:08;;;;;;;4.23;3.27;;;0.90;99.90;;;;;;5075151;28;20204;-78
2023/03/15 03:24:36;;;;;;;4.17;3.00;;;1.00;99.90;;;;;;5086508;28;20586;-78
2023/03/15 03:27:04;;;;;;;5.23;3.33;;;0.90;99.90;;;;;;5095369;28;20231;-77
2023/03/15 03:29:33;;;;;;;3.53;3.20;;;0.90;99.90;;;;;;5095488;28;20551;-78
2023/03/15 03:32:01;;;;;;;5.30;2.97;;;0.90;99.90;;;;;;5092420;28;20496;-78
2023/03/15 03:34:30;;;;;;;5.07;2.70;;;0.90;99.90;;;;;;5095306;28;20448;-78
2023/03/15 03:36:59;;;;;;;5.43;3.00;;;0.80;99.90;;;;;;5094931;28;20451;-78
2023/03/15 03:39:28;;;;;;;5.60;2.50;;;0.80;99.90;;;;;;5095347;28;20214;-78
2023/03/15 03:41:56;;;;;;;5.20;2.50;;;0.80;99.90;;;;;;5093591;28;20488;-79
2023/03/15 03:44:24;;;;;;;7.63;3.13;;;0.80;99.90;;;;;;5094501;28;20521;-78
2023/03/15 03:46:52;;;;;;;6.60;2.60;;;0.80;99.90;;;;;;5095171;28;20882;-78
2023/03/15 03:49:20;;;;;;;10.57;2.93;;;0.80;99.90;;;;;;5093674;28;20492;-78
2023/03/15 03:51:48;;;;;;;7.57;3.10;;;0.80;99.90;;;;;;5094424;28;20491;-78
2023/03/15 03:54:20;;;;;;;8.33;3.00;;;0.80;99.90;;;;;;5094139;28;20540;-78
2023/03/15 03:56:48;;;;;;;8.57;3.20;;;0.80;99.90;;;;;;5094399;28;20480;-78
2023/03/15 03:59:16;;;;;;;5.87;2.90;;;0.80;99.90;;;;;;5093215;28;20548;-77
2023/03/15 04:01:44;;;;;;;5.87;2.87;;;0.80;99.90;;;;;;5094184;28;20473;-77
2023/03/15 04:04:13;;;;;;;8.50;3.40;;;0.80;99.90;;;;;;5093836;28;20620;-79
2023/03/15 04:06:44;;;;;;;10.17;2.67;;;0.80;99.90;;;;;;5093367;28;20510;-79
2023/03/15 04:09:13;;;;;;;7.80;3.33;;;0.80;99.90;;;;;;5093885;28;20945;-79
2023/03/15 04:11:43;;;;;;;7.87;3.10;;;0.80;99.90;;;;;;5092901;28;20313;-77
2023/03/15 04:14:11;;;;;;;9.40;3.37;;;0.80;99.90;;;;;;5093720;28;20227;-78
2023/03/15 04:16:40;;;;;;;7.77;3.30;;;0.80;99.90;;;;;;5094020;28;20290;-78
2023/03/15 04:19:11;;;;;;;11.03;3.30;;;0.80;99.90;;;;;;5092733;28;20477;-78
2023/03/15 04:21:46;;;;;;;7.83;3.53;;;0.80;99.90;;;;;;5093796;28;20199;-78
2023/03/15 04:24:14;;;;;;;9.13;3.90;;;0.80;99.90;;;;;;5092733;28;20508;-77
2023/03/15 04:26:44;;;;;;;9.63;3.80;;;0.80;99.90;;;;;;5092552;28;20575;-77
2023/03/15 04:29:14;;;;;;;10.47;3.93;;;0.80;99.90;;;;;;5093529;28;20883;-77
2023/03/15 04:31:42;;;;;;;4.90;3.00;;;0.80;99.90;;;;;;5093806;28;20480;-77
2023/03/15 04:34:10;;;;;;;7.20;3.30;;;0.80;99.90;;;;;;5092560;28;20207;-77
2023/03/15 04:36:38;;;;;;;4.13;2.70;;;0.80;99.90;;;;;;5093815;28;20436;-77
2023/03/15 04:39:06;;;;;;;4.83;2.77;;;0.80;99.90;;;;;;5093629;28;20472;-77
2023/03/15 04:41:35;;;;;;;5.33;3.20;;;0.80;99.90;;;;;;5093368;28;20210;-77
2023/03/15 04:44:06;;;;;;;5.27;3.00;;;0.70;99.90;;;;;;5092364;28;20215;-77
2023/03/15 04:46:34;;;;;;;5.17;2.90;;;0.70;99.90;;;;;;5094383;28;20799;-79
2023/03/15 04:49:03;;;;;;;4.53;2.70;;;0.70;99.90;;;;;;5094303;28;20449;-79
2023/03/15 04:51:33;;;;;;;3.03;2.50;;;0.70;99.90;;;;;;5093903;28;20850;-79
2023/03/15 04:54:02;;;;;;;4.63;2.50;;;0.60;99.90;;;;;;5092359;28;20617;-79
2023/03/15 04:56:30;;;;;;;4.60;2.57;;;0.60;99.90;;;;;;5094212;28;20506;-78
2023/03/15 04:58:58;;;;;;;3.10;2.30;;;0.60;99.90;;;;;;5093191;28;20260;-79
2023/03/15 05:01:33;;;;;;;4.20;2.37;;;0.50;99.90;;;;;;5091598;28;20453;-79
2023/03/15 05:04:01;;;;;;;5.23;2.40;;;0.50;99.90;;;;;;5092823;28;20445;-78
2023/03/15 05:06:30;;;;;;;3.47;2.30;;;0.50;99.90;;;;;;5093320;28;20548;-79
2023/03/15 05:08:58;;;;;;;5.10;2.00;;;0.50;99.90;;;;;;5093168;28;20739;-79
2023/03/15 05:11:26;;;;;;;4.57;2.40;;;0.40;99.90;;;;;;5080231;28;21012;-78
2023/03/15 05:13:54;;;;;;;5.03;2.30;;;0.40;99.90;;;;;;5092795;28;20446;-79
2023/03/15 05:16:22;;;;;;;4.57;2.60;;;0.50;99.90;;;;;;5093077;28;20453;-80
2023/03/15 05:18:52;;;;;;;4.03;2.33;;;0.40;99.90;;;;;;5092770;28;20468;-77
2023/03/15 05:21:20;;;;;;;5.60;2.30;;;0.40;99.90;;;;;;5091974;28;20514;-79
2023/03/15 05:23:48;;;;;;;7.23;2.80;;;0.40;99.90;;;;;;5092423;28;20459;-79
2023/03/15 05:26:17;;;;;;;6.07;3.23;;;0.50;99.90;;;;;;5092464;28;20922;-80
2023/03/15 05:28:45;;;;;;;9.37;3.23;;;0.40;99.90;;;;;;5091699;28;20969;-79
2023/03/15 05:31:13;;;;;;;4.97;2.77;;;0.40;99.90;;;;;;5092259;28;20453;-78
2023/03/15 05:33:45;;;;;;;6.03;2.93;;;0.40;99.90;;;;;;5092486;28;20554;-80
2023/03/15 05:36:16;;;;;;;7.57;2.90;;;0.40;99.90;;;;;;5091081;28;20509;-80
2023/03/15 05:38:44;;;;;;;9.50;3.47;;;0.40;99.90;;;;;;5092500;28;20440;-78
2023/03/15 05:41:16;;;;;;;5.87;3.23;;;0.50;99.90;;;;;;5092087;28;20452;-79
2023/03/15 05:43:45;;;;;;;5.27;3.20;;;0.50;99.90;;;;;;5092075;28;20453;-79
2023/03/15 05:46:13;;;;;;;6.03;3.20;;;0.40;99.90;;;;;;5092098;28;20495;-77
2023/03/15 05:48:42;;;;;;;5.87;3.07;;;0.40;99.90;;;;;;5091743;28;20490;-79
2023/03/15 05:51:10;;;;;;;8.87;3.40;;;0.40;99.90;;;;;;5089697;28;20501;-78
2023/03/15 05:53:39;;;;;;;6.93;3.87;;;0.40;99.90;;;;;;5091089;28;20506;-77
2023/03/15 05:56:11;;;;;;;7.53;3.93;;;0.40;99.90;;;;;;5091475;28;20551;-79
2023/03/15 05:58:39;;;;;;;7.57;4.00;;;0.40;99.90;;;;;;5092013;28;20457;-79
2023/03/15 06:01:08;;;;;;;9.70;4.60;;;0.40;99.90;;;;;;5091381;28;20575;-78
2023/03/15 06:03:36;;;;;;;10.17;4.30;;;0.40;99.90;;;;;;5090841;28;20555;-77
2023/03/15 06:06:05;;;;;;;12.53;4.97;;;0.40;99.90;;;;;;5093089;28;20926;-78
2023/03/15 06:08:33;;;;;;;7.97;5.20;;;0.40;99.90;;;;;;5092391;28;20536;-78
2023/03/15 06:11:02;;;;;;;10.03;4.90;;;0.40;99.90;;;;;;5092241;28;20547;-79
2023/03/15 06:13:30;;;;;;;10.00;5.10;;;0.40;99.90;;;;;;5091339;28;20488;-80
2023/03/15 06:15:58;;;;;;;8.70;4.70;;;0.40;99.90;;;;;;5093206;28;20452;-80
2023/03/15 06:18:27;;;;;;;8.43;5.60;;;0.50;99.90;;;;;;5092643;28;20463;-79
2023/03/15 06:20:55;;;;;;;8.70;4.80;;;0.50;99.90;;;;;;5091273;28;20499;-79
2023/03/15 06:23:23;;;;;;;10.60;5.13;;;0.60;99.90;;;;;;5092085;28;20914;-80
2023/03/15 06:25:51;;;;;;;10.47;5.30;;;0.60;99.90;;;;;;5091885;28;20456;-80
2023/03/15 06:28:21;;;;;;;9.63;5.13;;;0.60;99.90;;;;;;5091698;28;20496;-78
2023/03/15 06:30:49;;;;;;;8.80;5.27;;;0.50;99.90;;;;;;5092262;28;20480;-80
2023/03/15 06:33:17;;;;;;;13.47;5.50;;;0.50;99.90;;;;;;5093903;28;20485;-78
2023/03/15 06:35:46;;;;;;;9.80;5.20;;;0.50;99.90;;;;;;5092721;28;21242;-79
2023/03/15 06:38:14;;;;;;;9.93;5.27;;;0.60;99.90;;;;;;5096535;28;20543;-79
2023/03/15 06:40:43;;;;;;;11.00;5.00;;;0.60;99.90;;;;;;5095912;28;20926;-80
2023/03/15 06:43:17;;;;;;;8.80;5.20;;;0.70;99.90;;;;;;5089939;28;20498;-79
2023/03/15 06:45:48;;;;;;;13.07;5.60;;;0.70;99.90;;;;;;5087153;28;20433;-79
2023/03/15 06:48:17;;;;;;;8.67;5.13;;;0.70;99.90;;;;;;5097390;28;20613;-79
2023/03/15 06:50:45;;;;;;;12.07;5.57;;;0.70;99.90;;;;;;5093746;28;20517;-79
2023/03/15 06:53:15;;;;;;;9.83;5.30;;;0.90;99.90;;;;;;5094452;28;20225;-79
2023/03/15 06:55:43;;;;;;;10.87;5.03;;;0.90;99.90;;;;;;5090379;28;20461;-79
2023/03/15 06:58:11;;;;;;;9.90;4.87;;;1.10;99.90;;;;;;5092282;28;20227;-79
2023/03/15 07:00:39;;;;;;;11.50;5.20;;;1.10;99.90;;;;;;5092446;28;20246;-78
2023/03/15 07:03:09;;;;;;;14.23;5.10;;;1.10;99.90;;;;;;5091878;28;20280;-79
2023/03/15 07:05:37;;;;;;;10.67;5.03;;;1.10;99.90;;;;;;5098529;28;20238;-78
2023/03/15 07:08:06;;;;;;;13.13;5.23;;;1.10;99.90;;;;;;5093199;28;20793;-79
2023/03/15 07:10:35;;;;;;;12.70;5.83;;;1.10;99.90;;;;;;5095759;28;20187;-78
2023/03/15 07:13:05;;;;;;;11.43;5.47;;;1.20;99.90;;;;;;5095115;28;20700;-77
2023/03/15 07:15:36;;;;;;;9.87;5.00;;;1.30;99.90;;;;;;5094960;28;20218;-78
2023/03/15 07:18:04;;;;;;;10.00;4.83;;;1.50;99.90;;;;;;5101246;28;20206;-80
2023/03/15 07:20:40;;;;;;;12.00;5.13;;;1.60;99.90;;;;;;5098155;28;20230;-78
2023/03/15 07:23:08;;;;;;;11.03;4.50;;;1.60;99.90;;;;;;5094899;28;20297;-78
2023/03/15 07:25:36;;;;;;;8.40;4.50;;;1.60;99.90;;;;;;5099031;28;20265;-80
2023/03/15 07:28:22;;;;;;;9.87;4.43;;;1.70;99.90;;;;;;5100986;28;20231;-78
2023/03/15 07:30:55;;;;;;;9.37;4.40;;;1.80;99.90;;;;;;5094495;28;20238;-78
2023/03/15 07:33:24;;;;;;;8.23;4.03;;;2.00;99.90;;;;;;5097657;28;20340;-79
2023/03/15 07:35:54;;;;;;;8.93;3.80;;;2.40;99.90;;;;;;5096793;28;20207;-78
2023/03/15 07:38:24;;;;;;;8.43;3.33;;;2.90;99.90;;;;;;5096748;28;20214;-78
2023/03/15 07:40:52;;;;;;;9.30;3.43;;;3.80;99.90;;;;;;5095369;28;20211;-78
2023/03/15 07:43:21;;;;;;;6.50;2.90;;;4.50;99.90;;;;;;5094540;28;20211;-78
2023/03/15 07:45:49;;;;;;;6.17;3.33;;;5.10;99.90;;;;;;5096800;28;20241;-77
2023/03/15 07:48:17;;;;;;;6.80;2.93;;;5.70;99.90;;;;;;5095400;28;20583;-78
2023/03/15 07:50:46;;;;;;;6.60;2.97;;;6.70;99.90;;;;;;5095466;28;20237;-77
2023/03/15 07:53:15;;;;;;;4.10;2.57;;;7.60;99.90;;;;;;5097036;28;20227;-77
2023/03/15 07:55:46;;;;;;;6.53;2.80;;;9.10;99.90;;;;;;5097526;28;20230;-79
2023/03/15 07:58:15;;;;;;;4.67;2.87;;;9.30;99.90;;;;;;5099027;28;20273;-81
2023/03/15 08:00:45;;;;;;;5.53;2.80;;;10.30;99.90;;;;;;5111239;28;20246;-79
2023/03/15 08:03:14;;;;;;;5.40;2.83;;;10.80;99.90;;;;;;5111809;28;20210;-78
2023/03/15 08:05:42;;;;;;;5.70;2.80;;;11.40;99.90;;;;;;5116685;28;20210;-80
2023/03/15 08:08:10;;;;;;;6.53;3.30;;;11.10;99.90;;;;;;5114670;28;20222;-80
2023/03/15 08:10:39;;;;;;;6.40;3.00;;;11.30;99.90;;;;;;5117398;28;20207;-80
2023/03/15 08:13:08;;;;;;;7.10;3.67;;;11.00;99.90;;;;;;5109970;28;20234;-79
2023/03/15 08:15:36;;;;;;;5.67;3.40;;;10.60;99.90;;;;;;5110993;28;20221;-79
2023/03/15 08:18:05;;;;;;;5.37;3.40;;;9.50;99.90;;;;;;5110488;28;20234;-81
2023/03/15 08:20:33;;;;;;;7.40;3.90;;;8.50;99.90;;;;;;5112181;28;20227;-78
2023/03/15 08:23:02;;;;;;;7.30;4.20;;;6.80;99.90;;;;;;5114816;28;20197;-80
2023/03/15 08:25:30;;;;;;;8.63;3.97;;;5.90;99.90;;;;;;5087005;28;20626;-79
2023/03/15 08:28:01;;;;;;;8.90;4.63;;;5.30;99.90;;;;;;5091941;28;20709;-79
2023/03/15 08:30:29;;;;;;;8.20;4.33;;;4.80;99.90;;;;;;5090889;28;20230;-81
2023/03/15 08:32:57;;;;;;;8.17;3.73;;;4.80;99.90;;;;;;5087334;28;20242;-81
2023/03/15 08:35:25;;;;;;;8.23;3.50;;;5.50;99.90;;;;;;5104675;28;20269;-78
2023/03/15 08:37:54;;;;;;;5.83;3.17;;;6.40;99.90;;;;;;5105016;28;20217;-80
2023/03/15 08:40:25;;;;;;;7.23;2.90;;;7.60;99.90;;;;;;5106012;28;20214;-79
2023/03/15 08:42:54;;;;;;;4.40;2.90;;;8.90;99.90;;;;;;5101397;28;20238;-81
2023/03/15 08:45:24;;;;;;;6.00;3.00;;;9.50;99.90;;;;;;5109957;28;20664;-79
2023/03/15 08:47:55;;;;;;;4.97;2.80;;;9.00;99.90;;;;;;5107636;28;20195;-80
2023/03/15 08:50:25;;;;;;;5.83;3.20;;;8.00;99.90;;;;;;5102621;28;20558;-80
2023/03/15 08:52:53;;;;;;;6.83;3.37;;;7.40;99.90;;;;;;5108778;28;20237;-79
2023/03/15 08:55:26;;;;;;;6.07;2.87;;;7.10;99.90;;;;;;5108286;28;20207;-80
2023/03/15 08:57:55;;;;;;;6.43;3.10;;;7.20;99.90;;;;;;5088962;28;20192;-78
2023/03/15 09:00:24;;;;;;;6.33;3.23;;;8.00;99.90;;;;;;5086760;28;20599;-80
2023/03/15 09:02:54;;;;;;;6.13;2.80;;;9.80;99.90;;;;;;5094551;28;20229;-79
2023/03/15 09:05:24;;;;;;;6.17;2.60;;;10.00;99.90;;;;;;5082317;28;20287;-80
2023/03/15 09:07:52;;;;;;;7.93;3.30;;;11.00;99.90;;;;;;5087035;28;20236;-80
2023/03/15 09:10:21;;;;;;;6.40;2.80;;;12.40;94.50;;;;;;5095643;28;20203;-78
2023/03/15 09:12:52;;;;;;;6.20;3.10;;;12.80;91.20;;;;;;5095754;28;20207;-78
2023/03/15 09:15:21;;;;;;;6.43;3.10;;;13.90;90.10;;;;;;5092586;28;20322;-78
2023/03/15 09:17:51;;;;;;;7.83;3.13;;;14.20;89.60;;;;;;5093622;28;20210;-78
2023/03/15 09:20:21;;;;;;;5.07;2.77;;;14.10;83.00;;;;;;5092971;28;20682;-77
2023/03/15 09:22:51;;;;;;;5.67;2.80;;;13.70;78.90;;;;;;5092637;28;20702;-75
2023/03/15 09:25:20;;;;;;;6.03;3.00;;;13.40;83.20;;;;;;5091927;28;20301;-77
2023/03/15 09:27:50;;;;;;;6.23;3.00;;;13.20;83.80;;;;;;5094531;28;20223;-76
2023/03/15 09:30:19;;;;;;;8.13;3.40;;;11.90;85.80;;;;;;5094919;28;20699;-77
2023/03/15 09:32:47;;;;;;;6.87;3.60;;;10.90;89.40;;;;;;5083545;28;20580;-77
2023/03/15 09:35:18;;;;;;;8.47;3.50;;;10.20;92.50;;;;;;5074250;28;20223;-76
2023/03/15 09:37:47;;;;;;;6.33;3.43;;;9.10;95.80;;;;;;5074338;28;20219;-77
2023/03/15 09:40:19;;;;;;;9.27;3.57;;;8.30;99.70;;;;;;5077091;28;20213;-77
2023/03/15 09:42:57;;;;;;;7.83;3.27;;;7.50;99.70;;;;;;5093556;28;20676;-76
2023/03/15 09:45:31;;;;;;;8.53;3.60;;;6.90;99.90;;;;;;5094609;28;20190;-77
2023/03/15 09:48:08;;;;;;;6.53;3.27;;;7.20;99.90;;;;;;5075969;28;20206;-78
2023/03/15 09:50:43;;;;;;;8.80;3.87;;;6.80;99.90;;;;;;5093152;28;20206;-79
2023/03/15 09:53:14;;;;;;;7.43;3.70;;;6.90;99.90;;;;;;5092550;28;20206;-78
2023/03/15 09:55:43;;;;;;;9.13;3.30;;;7.30;99.90;;;;;;5091656;28;20221;-78
2023/03/15 09:58:14;;;;;;;9.07;3.47;;;9.20;99.50;;;;;;5094511;28;20241;-77
2023/03/15 10:00:46;;;;;;;5.43;3.07;;;8.90;98.00;;;;;;5092446;28;20206;-78
2023/03/15 10:03:20;;;;;;;7.43;3.20;;;8.70;98.70;;;;;;5093435;28;20198;-77
2023/03/15 10:05:56;;;;;;;7.00;3.17;;;8.20;99.10;;;;;;5091702;28;20293;-77
2023/03/15 10:08:25;;;;;;;7.93;3.13;;;7.80;99.90;;;;;;5092298;28;20628;-77
2023/03/15 10:11:03;;;;;;;7.40;3.47;;;8.50;99.80;;;;;;5092509;28;20302;-79
2023/03/15 10:13:42;;;;;;;6.97;2.80;;;9.10;97.20;;;;;;5091477;28;20206;-77
2023/03/15 10:16:21;;;;;;;8.60;2.73;;;9.30;96.20;;;;;;5092023;28;20604;-78
2023/03/15 10:19:01;;;;;;;4.47;2.20;;;10.80;92.00;;;;;;5092681;28;20218;-76
2023/03/15 10:21:40;;;;;;;4.30;2.10;;;12.00;92.70;;;;;;5090899;28;20206;-76
2023/03/15 10:24:18;;;;;;;5.37;2.30;;;12.20;83.10;;;;;;5092113;28;20206;-76
2023/03/15 10:26:48;;;;;;;4.93;2.43;;;12.70;84.80;;;;;;5092279;28;20318;-75
2023/03/15 10:29:19;;;;;;;6.83;2.60;;;13.40;81.60;;;;;;5092417;28;20199;-77
2023/03/15 10:31:51;;;;;;;6.77;2.40;;;13.30;79.60;;;;;;5091276;28;20242;-78
2023/03/15 10:34:20;;;;;;;5.77;2.00;;;13.80;87.50;;;;;;5092556;28;20202;-78
2023/03/15 10:36:53;;;;;;;5.50;1.80;;;13.60;73.00;;;;;;5092230;28;20210;-77
2023/03/15 10:39:23;;;;;;;4.40;2.00;;;14.00;67.50;;;;;;5092075;28;20238;-75
2023/03/15 10:41:51;;;;;;;5.70;1.93;;;14.50;69.30;;;;;;5091775;28;20243;-78
2023/03/15 10:44:23;;;;;;;4.17;1.73;;;14.70;66.70;;;;;;5093948;28;20207;-77
2023/03/15 10:47:01;;;;;;;5.47;1.90;;;13.90;63.90;;;;;;5094179;28;20317;-77
2023/03/15 10:49:38;;;;;;;4.60;2.10;;;14.10;64.80;;;;;;5097632;28;20210;-76
2023/03/15 10:52:27;;;;;;;4.23;1.90;;;14.30;66.10;;;;;;5099771;28;20240;-76
2023/03/15 10:54:55;;;;;;;4.03;1.60;;;15.00;66.40;;;;;;5096822;28;20500;-76
2023/03/15 10:57:35;;;;;;;5.40;2.07;;;14.00;63.60;;;;;;5096924;28;20198;-76
2023/03/15 11:00:18;;;;;;;5.50;1.80;;;14.80;61.80;;;;;;5093136;28;20290;-77
2023/03/15 11:02:51;;;;;;;4.33;2.00;;;15.40;63.10;;;;;;5092727;28;20238;-78
2023/03/15 11:05:20;;;;;;;6.23;1.90;;;15.60;62.30;;;;;;5092031;28;20211;-78
2023/03/15 11:07:57;;;;;;;6.57;2.40;;;15.20;61.50;;;;;;5091976;28;20681;-76
2023/03/15 11:10:28;;;;;;;4.63;2.10;;;15.20;63.40;;;;;;5071719;28;20215;-77
2023/03/15 11:13:19;;;;;;;5.13;2.03;;;15.20;64.60;;;;;;5074960;28;20215;-76
2023/03/15 11:15:54;;;;;;;5.93;2.30;;;14.90;66.40;;;;;;5071704;28;20299;-76
2023/03/15 11:18:28;;;;;;;5.20;1.97;;;15.60;65.30;;;;;;5089065;28;20253;-75
2023/03/15 11:20:57;;;;;;;5.33;2.20;;;15.60;60.70;;;;;;5091638;28;20235;-76
2023/03/15 11:23:31;;;;;;;4.33;2.00;;;15.60;65.70;;;;;;5091413;28;20322;-77
2023/03/15 11:26:00;;;;;;;5.00;2.17;;;15.40;62.80;;;;;;5090886;28;20219;-76
2023/03/15 11:28:30;;;;;;;4.47;2.10;;;15.30;61.40;;;;;;5091519;28;20242;-77
2023/03/15 11:31:00;;;;;;;4.13;2.10;;;15.80;61.20;;;;;;5091461;28;20201;-78
2023/03/15 11:33:41;;;;;;;5.83;2.13;;;15.60;60.40;;;;;;5092934;28;20302;-76
2023/03/15 11:36:16;;;;;;;4.77;2.20;;;15.40;57.90;;;;;;5094450;28;20295;-76
2023/03/15 11:38:46;;;;;;;5.43;1.80;;;15.00;60.70;;;;;;5095309;28;20206;-77
2023/03/15 11:41:26;;;;;;;5.50;1.90;;;14.90;58.10;;;;;;5094800;28;20260;-78
2023/03/15 11:44:06;;;;;;;5.43;2.33;;;13.60;62.10;;;;;;5094434;28;20630;-76
2023/03/15 11:46:40;;;;;;;4.70;2.10;;;14.00;67.50;;;;;;5094032;28;20220;-77
2023/03/15 11:49:15;;;;;;;6.63;2.10;;;14.30;65.60;;;;;;5094732;28;20183;-76
2023/03/15 11:51:43;;;;;;;5.10;1.80;;;14.20;65.30;;;;;;5094296;28;20583;-77
2023/03/15 11:54:15;;;;;;;5.13;1.90;;;14.90;62.30;;;;;;5093534;28;20207;-77
2023/03/15 11:56:49;;;;;;;5.87;2.00;;;13.90;62.80;;;;;;5094680;28;20544;-77
2023/03/15 11:59:20;;;;;;;3.90;1.70;;;12.90;64.30;;;;;;5093463;28;20203;-76
2023/03/15 12:01:49;;;;;;;5.47;2.10;;;12.10;63.40;;;;;;5094890;28;20202;-77
2023/03/15 12:04:46;;;;;;;4.00;1.80;;;10.80;66.50;;;;;;5094760;28;20242;-78
2023/03/15 12:07:37;;;;;;;4.37;2.00;;;10.50;69.60;;;;;;5094601;28;20362;-77
2023/03/15 12:10:34;;;;;;;5.00;2.30;;;9.70;71.90;;;;;;5074210;28;20211;-77
2023/03/15 12:13:16;;;;;;;3.93;1.90;;;9.00;75.20;;;;;;5081901;28;20196;-77
2023/03/15 12:15:49;;;;;;;4.70;1.90;;;8.60;76.70;;;;;;5087624;28;20234;-77
2023/03/15 12:18:38;;;;;;;4.23;1.67;;;8.10;79.40;;;;;;5092675;28;20214;-77
2023/03/15 12:21:16;;;;;;;6.33;2.03;;;7.60;81.50;;;;;;5099981;28;20261;-78
2023/03/15 12:23:57;;;;;;;3.70;1.70;;;7.30;82.30;;;;;;5098399;28;20273;-78
2023/03/15 12:26:40;;;;;;;5.83;1.90;;;7.20;82.50;;;;;;5093574;28;20711;-77
2023/03/15 12:29:15;;;;;;;5.53;2.00;;;6.80;86.70;;;;;;5094200;28;20732;-77
2023/03/15 12:31:56;;;;;;;4.80;2.00;;;6.50;88.80;;;;;;5093829;28;20216;-76
2023/03/15 12:34:28;;;;;;;4.23;1.93;;;6.60;90.80;;;;;;5093457;28;20202;-78
2023/03/15 12:37:01;;;;;;;4.03;1.70;;;6.70;90.00;;;;;;5093687;28;20668;-79
2023/03/15 12:39:45;;;;;;;4.37;1.70;;;6.70;90.30;;;;;;5093967;28;20191;-77
2023/03/15 12:42:46;;;;;;;4.93;1.80;;;6.60;90.70;;;;;;5093607;28;20236;-76
2023/03/15 12:45:36;;;;;;;4.10;1.90;;;6.60;89.80;;;;;;5061195;28;20206;-78
2023/03/15 12:48:28;;;;;;;6.70;1.80;;;6.50;91.40;;;;;;5094355;28;20633;-77
2023/03/15 12:51:05;;;;;;;4.07;2.00;;;6.50;92.40;;;;;;5092921;28;20202;-78
2023/03/15 12:53:50;;;;;;;3.17;1.90;;;6.50;92.30;;;;;;5085542;28;20210;-78
2023/03/15 12:56:49;;;;;;;4.03;1.77;;;7.20;90.80;;;;;;5093398;28;20215;-78
2023/03/15 12:59:32;;;;;;;3.03;1.53;;;7.80;91.00;;;;;;5093744;28;20620;-78
2023/03/15 13:02:03;;;;;;;3.27;1.60;;;8.00;84.60;;;;;;5092245;28;20264;-78
2023/03/15 13:04:31;;;;;;;2.47;1.20;;;7.60;81.70;;;;;;5093695;28;20316;-77
2023/03/15 13:07:17;;;;;;;4.80;1.40;;;8.00;82.50;;;;;;5093628;28;20207;-77
2023/03/15 13:10:22;;;;;;;2.27;1.30;;;8.50;82.60;;;;;;5081306;28;20239;-78
2023/03/15 13:12:56;;;;;;;3.87;1.53;;;9.00;80.30;;;;;;5010548;28;20221;-77
2023/03/15 13:15:31;;;;;;;4.03;1.60;;;8.90;75.90;;;;;;5064659;28;20627;-77
2023/03/15 13:18:16;;;;;;;3.70;1.30;;;8.80;73.20;;;;;;5090293;28;20328;-77